createdAt,value
2018-09-17T00:01:05.719Z,100.00
2018-09-17T00:03:35.808Z,100.00
2018-09-17T00:06:05.940Z,100.00
2018-09-17T00:08:36.015Z,100.00
2018-09-17T00:11:06.181Z,100.00
2018-09-17T00:13:36.258Z,100.00
2018-09-17T00:16:06.446Z,100.00
2018-09-17T00:18:36.482Z,100.00
2018-09-17T00:21:06.672Z,100.00
2018-09-17T00:23:36.745Z,100.00
2018-09-17T00:26:06.870Z,100.00
2018-09-17T00:28:36.916Z,100.00
2018-09-17T00:31:07.012Z,100.00
2018-09-17T00:33:37.103Z,100.00
2018-09-17T00:36:07.321Z,100.00
2018-09-17T00:38:37.436Z,100.00
2018-09-17T00:41:07.610Z,100.00
2018-09-17T00:43:37.692Z,100.00
2018-09-17T00:46:07.777Z,100.00
2018-09-17T00:48:37.995Z,100.00
2018-09-17T00:51:08.186Z,100.00
2018-09-17T00:53:38.251Z,100.00
2018-09-17T00:56:08.457Z,100.00
2018-09-17T00:58:38.569Z,100.00
2018-09-17T01:01:08.800Z,100.00
2018-09-17T01:03:38.887Z,100.00
2018-09-17T01:06:09.019Z,100.00
2018-09-17T01:08:39.110Z,100.00
2018-09-17T01:11:09.364Z,100.00
2018-09-17T01:13:39.437Z,100.00
2018-09-17T01:16:10.360Z,100.00
2018-09-17T01:18:40.398Z,100.00
2018-09-17T01:21:10.485Z,100.00
2018-09-17T01:23:40.595Z,100.00
2018-09-17T01:26:10.760Z,100.00
2018-09-17T01:28:40.815Z,100.00
2018-09-17T01:31:10.952Z,100.00
2018-09-17T01:33:40.968Z,100.00
2018-09-17T01:36:11.141Z,100.00
2018-09-17T01:38:41.260Z,100.00
2018-09-17T01:41:11.513Z,100.00
2018-09-17T01:43:41.683Z,100.00
2018-09-17T01:46:11.872Z,100.00
2018-09-17T01:48:41.924Z,100.00
2018-09-17T01:51:12.056Z,100.00
2018-09-17T01:53:42.090Z,100.00
2018-09-17T01:56:12.239Z,100.00
2018-09-17T01:58:42.332Z,100.00
2018-09-17T02:01:12.375Z,100.00
2018-09-17T02:03:42.414Z,100.00
2018-09-17T02:06:12.491Z,100.00
2018-09-17T02:08:42.577Z,100.00
2018-09-17T02:11:12.642Z,100.00
2018-09-17T02:13:42.841Z,100.00
2018-09-17T02:16:12.881Z,100.00
2018-09-17T02:18:43.158Z,100.00
2018-09-17T02:21:13.956Z,100.00
2018-09-17T02:23:44.450Z,100.00
2018-09-17T02:26:14.570Z,100.00
2018-09-17T02:28:44.640Z,100.00
2018-09-17T02:31:14.709Z,100.00
2018-09-17T02:33:44.937Z,100.00
2018-09-17T02:36:15.085Z,100.00
2018-09-17T02:38:45.155Z,100.00
2018-09-17T02:41:15.230Z,100.00
2018-09-17T02:43:45.326Z,100.00
2018-09-17T02:46:15.422Z,100.00
2018-09-17T02:48:45.499Z,100.00
2018-09-17T02:51:15.600Z,100.00
2018-09-17T02:53:45.628Z,100.00
2018-09-17T02:56:15.806Z,100.00
2018-09-17T02:58:45.899Z,100.00
2018-09-17T03:01:16.020Z,100.00
2018-09-17T03:03:46.089Z,100.00
2018-09-17T03:06:16.161Z,100.00
2018-09-17T03:08:46.267Z,100.00
2018-09-17T03:11:16.351Z,100.00
2018-09-17T03:13:46.451Z,100.00
2018-09-17T03:16:16.557Z,100.00
2018-09-17T03:18:55.568Z,100.00
2018-09-17T03:21:25.782Z,100.00
2018-09-17T03:23:55.870Z,100.00
2018-09-17T03:26:25.962Z,100.00
2018-09-17T03:28:56.041Z,100.00
2018-09-17T03:31:26.103Z,100.00
2018-09-17T03:33:56.361Z,100.00
2018-09-17T03:36:26.437Z,100.00
2018-09-17T03:38:56.516Z,100.00
2018-09-17T03:41:26.612Z,100.00
2018-09-17T03:43:56.712Z,100.00
2018-09-17T03:46:26.877Z,100.00
2018-09-17T03:48:57.100Z,100.00
2018-09-17T03:51:27.257Z,100.00
2018-09-17T03:53:57.387Z,100.00
2018-09-17T03:56:27.626Z,100.00
2018-09-17T03:58:57.620Z,100.00
2018-09-17T04:01:27.704Z,100.00
2018-09-17T04:03:57.801Z,100.00
2018-09-17T04:06:27.948Z,100.00
2018-09-17T04:08:58.019Z,100.00
2018-09-17T04:11:28.111Z,100.00
2018-09-17T04:13:58.145Z,100.00
2018-09-17T04:16:28.258Z,100.00
2018-09-17T04:18:59.459Z,100.00
2018-09-17T04:21:29.536Z,100.00
2018-09-17T04:23:59.630Z,100.00
2018-09-17T04:26:29.745Z,100.00
2018-09-17T04:28:59.813Z,100.00
2018-09-17T04:31:29.946Z,100.00
2018-09-17T04:34:00.031Z,100.00
2018-09-17T04:36:30.224Z,100.00
2018-09-17T04:39:00.313Z,100.00
2018-09-17T04:41:30.499Z,100.00
2018-09-17T04:44:00.537Z,100.00
2018-09-17T04:46:30.632Z,100.00
2018-09-17T04:49:00.728Z,100.00
2018-09-17T04:51:30.811Z,100.00
2018-09-17T04:54:00.913Z,100.00
2018-09-17T04:56:31.083Z,100.00
2018-09-17T04:59:01.219Z,100.00
2018-09-17T05:01:31.340Z,100.00
2018-09-17T05:04:01.380Z,100.00
2018-09-17T05:06:31.437Z,100.00
2018-09-17T05:09:01.481Z,100.00
2018-09-17T05:11:31.563Z,100.00
2018-09-17T05:14:01.643Z,100.00
2018-09-17T05:16:31.776Z,100.00
2018-09-17T05:19:01.896Z,100.00
2018-09-17T05:21:32.031Z,100.00
2018-09-17T05:24:02.078Z,100.00
2018-09-17T05:26:32.169Z,100.00
2018-09-17T05:29:02.299Z,100.00
2018-09-17T05:31:32.609Z,100.00
2018-09-17T05:34:02.710Z,100.00
2018-09-17T05:36:32.770Z,100.00
2018-09-17T05:39:02.974Z,100.00
2018-09-17T05:41:33.095Z,100.00
2018-09-17T05:44:03.185Z,100.00
2018-09-17T05:46:33.496Z,100.00
2018-09-17T05:49:03.767Z,100.00
2018-09-17T05:51:33.913Z,100.00
2018-09-17T05:54:04.033Z,100.00
2018-09-17T05:56:34.175Z,100.00
2018-09-17T05:59:04.300Z,100.00
2018-09-17T06:01:34.445Z,100.00
2018-09-17T06:04:04.557Z,100.00
2018-09-17T06:06:34.739Z,100.00
2018-09-17T06:09:07.079Z,100.00
2018-09-17T06:11:37.231Z,100.00
2018-09-17T06:14:07.948Z,100.00
2018-09-17T06:16:38.133Z,100.00
2018-09-17T06:19:08.212Z,100.00
2018-09-17T06:21:38.380Z,100.00
2018-09-17T06:24:08.635Z,100.00
2018-09-17T06:26:39.004Z,100.00
2018-09-17T06:29:08.982Z,100.00
2018-09-17T06:31:39.136Z,100.00
2018-09-17T06:34:09.378Z,100.00
2018-09-17T06:36:39.518Z,100.00
2018-09-17T06:39:10.756Z,100.00
2018-09-17T06:41:40.884Z,100.00
2018-09-17T06:44:11.012Z,100.00
2018-09-17T06:46:41.130Z,95.53
2018-09-17T06:49:11.229Z,88.55
2018-09-17T06:51:41.372Z,81.04
2018-09-17T06:54:11.422Z,75.40
2018-09-17T06:56:41.506Z,70.82
2018-09-17T06:59:11.545Z,66.45
2018-09-17T07:01:41.612Z,61.31
2018-09-17T07:04:11.678Z,57.85
2018-09-17T07:06:41.786Z,56.06
2018-09-17T07:09:12.775Z,54.07
2018-09-17T07:11:42.853Z,50.84
2018-09-17T07:14:12.866Z,51.21
2018-09-17T07:16:42.942Z,49.85
2018-09-17T07:19:13.030Z,46.38
2018-09-17T07:21:43.166Z,45.57
2018-09-17T07:24:13.271Z,47.74
2018-09-17T07:26:43.458Z,46.77
2018-09-17T07:29:13.479Z,44.65
2018-09-17T07:31:43.576Z,45.53
2018-09-17T07:34:13.713Z,44.62
2018-09-17T07:36:43.821Z,43.83
2018-09-17T07:39:13.961Z,43.13
2018-09-17T07:41:44.067Z,44.40
2018-09-17T07:44:14.157Z,44.07
2018-09-17T07:46:44.240Z,42.32
2018-09-17T07:49:14.360Z,43.43
2018-09-17T07:51:44.585Z,41.56
2018-09-17T07:54:14.705Z,41.75
2018-09-17T07:56:45.066Z,43.75
2018-09-17T07:59:15.179Z,43.19
2018-09-17T08:01:45.271Z,44.35
2018-09-17T08:04:15.338Z,43.26
2018-09-17T08:06:45.426Z,43.19
2018-09-17T08:09:15.845Z,42.35
2018-09-17T08:11:45.985Z,43.76
2018-09-17T08:14:16.464Z,42.60
2018-09-17T08:16:46.512Z,42.91
2018-09-17T08:19:16.614Z,44.81
2018-09-17T08:21:46.789Z,45.45
2018-09-17T08:24:16.882Z,46.24
2018-09-17T08:26:46.947Z,48.17
2018-09-17T08:29:17.060Z,47.42
2018-09-17T08:31:47.186Z,47.19
2018-09-17T08:34:17.266Z,46.88
2018-09-17T08:36:47.359Z,45.90
2018-09-17T08:39:17.466Z,45.71
2018-09-17T08:41:47.535Z,46.46
2018-09-17T08:44:17.680Z,45.69
2018-09-17T08:46:47.832Z,48.80
2018-09-17T08:49:17.959Z,49.14
2018-09-17T08:51:48.019Z,48.33
2018-09-17T08:54:18.325Z,49.46
2018-09-17T08:56:59.061Z,48.28
2018-09-17T08:59:34.106Z,48.02
2018-09-17T09:02:09.318Z,44.82
2018-09-17T09:04:44.511Z,43.98
2018-09-17T09:07:19.831Z,43.24
2018-09-17T09:09:49.931Z,41.98
2018-09-17T09:12:26.208Z,42.12
2018-09-17T09:14:56.335Z,41.79
2018-09-17T09:17:26.479Z,41.91
2018-09-17T09:19:56.576Z,41.55
2018-09-17T09:22:26.660Z,40.83
2018-09-17T09:24:56.743Z,41.68
2018-09-17T09:27:29.830Z,43.18
2018-09-17T09:29:59.934Z,46.05
2018-09-17T09:32:30.027Z,46.54
2018-09-17T09:35:00.129Z,48.57
2018-09-17T09:37:30.312Z,49.75
2018-09-17T09:40:00.344Z,46.93
2018-09-17T09:42:30.427Z,45.85
2018-09-17T09:45:00.587Z,45.47
2018-09-17T09:47:30.673Z,45.46
2018-09-17T09:50:00.734Z,46.06
2018-09-17T09:52:30.805Z,46.93
2018-09-17T09:55:00.888Z,46.39
2018-09-17T09:57:31.011Z,45.13
2018-09-17T10:00:01.142Z,47.04
2018-09-17T10:02:36.065Z,44.38
2018-09-17T10:05:06.910Z,45.63
2018-09-17T10:07:37.490Z,44.21
2018-09-17T10:10:12.532Z,44.14
2018-09-17T10:13:47.285Z,45.25
2018-09-17T10:16:18.955Z,45.19
2018-09-17T10:18:54.154Z,44.00
2018-09-17T10:21:24.651Z,44.70
2018-09-17T10:23:54.725Z,44.92
2018-09-17T10:26:24.850Z,45.15
2018-09-17T10:28:54.977Z,45.58
2018-09-17T10:31:25.031Z,44.04
2018-09-17T10:33:55.207Z,44.88
2018-09-17T10:36:25.257Z,42.75
2018-09-17T10:38:55.404Z,43.17
2018-09-17T10:41:25.998Z,44.55
2018-09-17T10:43:56.072Z,46.87
2018-09-17T10:46:26.171Z,44.39
2018-09-17T10:48:56.395Z,45.51
2018-09-17T10:51:26.480Z,44.38
2018-09-17T10:53:56.640Z,42.01
2018-09-17T10:56:26.692Z,44.64
2018-09-17T10:58:56.920Z,44.65
2018-09-17T11:01:26.978Z,43.97
2018-09-17T11:03:57.615Z,44.46
2018-09-17T11:06:27.668Z,42.66
2018-09-17T11:08:57.802Z,41.99
2018-09-17T11:11:29.034Z,43.57
2018-09-17T11:13:59.163Z,44.22
2018-09-17T11:16:29.256Z,43.58
2018-09-17T11:18:59.444Z,42.81
2018-09-17T11:21:29.507Z,42.72
2018-09-17T11:23:59.624Z,43.41
2018-09-17T11:26:29.730Z,41.40
2018-09-17T11:28:59.847Z,42.11
2018-09-17T11:31:30.025Z,42.54
2018-09-17T11:34:00.066Z,40.80
2018-09-17T11:36:30.120Z,40.59
2018-09-17T11:39:08.054Z,41.08
2018-09-17T11:41:38.287Z,42.98
2018-09-17T11:44:08.544Z,41.46
2018-09-17T11:46:38.736Z,40.82
2018-09-17T11:49:13.042Z,41.10
2018-09-17T11:51:43.124Z,39.68
2018-09-17T11:54:13.200Z,39.83
2018-09-17T11:56:43.439Z,39.64
2018-09-17T11:59:13.540Z,36.54
2018-09-17T12:01:48.533Z,38.62
2018-09-17T12:05:21.428Z,40.09
2018-09-17T12:07:51.498Z,37.75
2018-09-17T12:10:21.575Z,36.82
2018-09-17T12:12:51.593Z,38.90
2018-09-17T12:15:21.793Z,37.44
2018-09-17T12:17:51.865Z,39.55
2018-09-17T12:20:21.991Z,39.88
2018-09-17T12:22:52.002Z,39.55
2018-09-17T12:25:22.107Z,40.47
2018-09-17T12:27:52.155Z,35.91
2018-09-17T12:30:22.310Z,34.94
2018-09-17T12:32:52.365Z,36.14
2018-09-17T12:35:22.579Z,34.36
2018-09-17T12:37:53.051Z,34.98
2018-09-17T12:40:29.564Z,34.70
2018-09-17T12:42:59.847Z,33.32
2018-09-17T12:45:29.979Z,33.61
2018-09-17T12:47:59.986Z,34.56
2018-09-17T12:50:30.070Z,32.62
2018-09-17T12:53:00.158Z,35.08
2018-09-17T12:55:30.293Z,35.29
2018-09-17T12:58:00.385Z,35.43
2018-09-17T13:00:30.657Z,35.97
2018-09-17T13:03:02.878Z,35.15
2018-09-17T13:05:33.007Z,34.40
2018-09-17T13:08:03.095Z,35.28
2018-09-17T13:10:33.255Z,34.01
2018-09-17T13:13:03.370Z,35.75
2018-09-17T13:15:33.479Z,34.15
2018-09-17T13:18:03.546Z,33.99
2018-09-17T13:20:33.616Z,33.59
2018-09-17T13:23:03.824Z,32.89
2018-09-17T13:25:33.988Z,35.44
2018-09-17T13:28:04.056Z,34.96
2018-09-17T13:30:34.204Z,34.99
2018-09-17T13:33:04.368Z,34.45
2018-09-17T13:35:34.663Z,33.43
2018-09-17T13:38:04.793Z,34.18
2018-09-17T13:40:34.896Z,33.48
2018-09-17T13:43:05.032Z,33.59
2018-09-17T13:45:35.166Z,34.40
2018-09-17T13:48:05.227Z,35.64
2018-09-17T13:53:04.440Z,33.03
2018-09-17T13:55:34.606Z,32.87
2018-09-17T13:58:04.697Z,33.67
2018-09-17T14:00:34.800Z,33.86
2018-09-17T14:03:04.887Z,33.08
2018-09-17T14:05:34.991Z,32.41
2018-09-17T14:08:05.122Z,32.90
2018-09-17T14:10:35.290Z,34.20
2018-09-17T14:13:05.381Z,35.30
2018-09-17T14:15:35.512Z,33.75
2018-09-17T14:18:05.689Z,33.06
2018-09-17T14:20:35.784Z,34.86
2018-09-17T14:23:05.894Z,32.61
2018-09-17T14:25:35.941Z,33.06
2018-09-17T14:28:06.026Z,32.80
2018-09-17T14:30:36.185Z,31.73
2018-09-17T14:33:11.490Z,33.35
2018-09-17T14:35:41.777Z,31.98
2018-09-17T14:38:11.879Z,33.22
2018-09-17T14:40:42.079Z,31.36
2018-09-17T14:43:12.198Z,33.60
2018-09-17T14:45:42.546Z,31.74
2018-09-17T14:48:12.610Z,32.36
2018-09-17T14:50:42.707Z,31.70
2018-09-17T14:53:12.793Z,31.91
2018-09-17T14:55:44.456Z,29.55
2018-09-17T14:58:15.083Z,30.52
2018-09-17T15:00:45.326Z,29.21
2018-09-17T15:03:15.448Z,28.48
2018-09-17T15:05:45.712Z,28.01
2018-09-17T15:08:16.074Z,27.80
2018-09-17T15:10:46.168Z,26.76
2018-09-17T15:13:16.360Z,27.54
2018-09-17T15:15:46.507Z,28.07
2018-09-17T15:18:17.337Z,27.01
2018-09-17T15:20:47.458Z,25.11
2018-09-17T15:23:17.521Z,25.53
2018-09-17T15:25:47.649Z,24.02
2018-09-17T15:28:17.787Z,24.14
2018-09-17T15:30:47.886Z,24.55
2018-09-17T15:33:18.014Z,25.63
2018-09-17T15:35:48.090Z,25.63
2018-09-17T15:38:18.231Z,25.32
2018-09-17T15:40:48.418Z,24.95
2018-09-17T15:43:18.430Z,25.24
2018-09-17T15:45:48.578Z,25.65
2018-09-17T15:48:18.657Z,26.02
2018-09-17T15:50:48.751Z,26.49
2018-09-17T15:53:18.816Z,27.42
2018-09-17T15:55:48.908Z,26.34
2018-09-17T15:58:19.100Z,26.67
2018-09-17T16:00:49.478Z,26.16
2018-09-17T16:03:19.591Z,28.44
2018-09-17T16:05:49.724Z,27.71
2018-09-17T16:08:19.802Z,27.27
2018-09-17T16:10:49.895Z,27.54
2018-09-17T16:13:20.157Z,27.41
2018-09-17T16:15:50.310Z,28.10
2018-09-17T16:18:20.495Z,28.46
2018-09-17T16:20:50.639Z,30.01
2018-09-17T16:23:20.760Z,29.93
2018-09-17T16:25:50.892Z,31.20
2018-09-17T16:28:20.980Z,32.83
2018-09-17T16:30:51.079Z,33.58
2018-09-17T16:33:21.161Z,34.14
2018-09-17T16:35:51.251Z,34.23
2018-09-17T16:38:21.386Z,34.89
2018-09-17T16:40:51.514Z,35.16
2018-09-17T16:43:21.671Z,36.77
2018-09-17T16:45:51.824Z,39.44
2018-09-17T16:48:22.044Z,40.54
2018-09-17T16:50:52.171Z,41.50
2018-09-17T16:53:22.246Z,43.91
2018-09-17T16:55:52.346Z,44.45
2018-09-17T16:58:22.728Z,45.15
2018-09-17T17:00:54.822Z,45.38
2018-09-17T17:03:24.979Z,45.93
2018-09-17T17:05:55.174Z,46.59
2018-09-17T17:08:25.365Z,46.66
2018-09-17T17:10:55.550Z,47.69
2018-09-17T17:13:25.543Z,48.67
2018-09-17T17:15:55.713Z,49.14
2018-09-17T17:18:25.808Z,48.84
2018-09-17T17:20:55.914Z,50.01
2018-09-17T17:23:26.032Z,50.49
2018-09-17T17:25:56.278Z,51.04
2018-09-17T17:28:26.478Z,51.38
2018-09-17T17:30:56.697Z,51.71
2018-09-17T17:33:26.740Z,52.95
2018-09-17T17:35:56.911Z,53.12
2018-09-17T17:38:27.036Z,53.87
2018-09-17T17:40:57.154Z,55.07
2018-09-17T17:43:27.232Z,55.92
2018-09-17T17:45:57.400Z,56.03
2018-09-17T17:48:27.478Z,56.62
2018-09-17T17:50:57.724Z,57.58
2018-09-17T17:53:28.070Z,57.34
2018-09-17T17:55:58.302Z,57.59
2018-09-17T17:58:28.365Z,57.85
2018-09-17T18:00:58.498Z,57.62
2018-09-17T18:03:28.620Z,58.14
2018-09-17T18:05:58.746Z,58.53
2018-09-17T18:08:28.821Z,58.26
2018-09-17T18:10:58.942Z,57.51
2018-09-17T18:13:29.092Z,57.77
2018-09-17T18:15:59.317Z,58.26
2018-09-17T18:18:29.472Z,58.77
2018-09-17T18:20:59.658Z,59.02
2018-09-17T18:23:29.729Z,59.54
2018-09-17T18:25:59.862Z,59.92
2018-09-17T18:28:29.919Z,59.87
2018-09-17T18:31:00.052Z,59.65
2018-09-17T18:33:30.146Z,59.66
2018-09-17T18:36:00.321Z,59.82
2018-09-17T18:38:30.425Z,60.52
2018-09-17T18:41:00.558Z,60.88
2018-09-17T18:43:30.648Z,61.34
2018-09-17T18:46:00.972Z,61.18
2018-09-17T18:48:31.129Z,61.64
2018-09-17T18:51:01.392Z,61.94
2018-09-17T18:53:31.534Z,61.59
2018-09-17T18:56:01.767Z,61.83
2018-09-17T18:58:32.010Z,62.23
2018-09-17T19:01:02.173Z,62.66
2018-09-17T19:03:32.251Z,62.68
2018-09-17T19:06:02.404Z,61.61
2018-09-17T19:08:32.567Z,61.16
2018-09-17T19:11:02.741Z,61.85
2018-09-17T19:13:32.908Z,61.84
2018-09-17T19:16:03.168Z,62.88
2018-09-17T19:18:33.439Z,62.42
2018-09-17T19:21:03.818Z,63.00
2018-09-17T19:24:07.112Z,63.52
2018-09-17T19:26:37.295Z,63.48
2018-09-17T19:29:12.419Z,64.51
2018-09-17T19:31:42.559Z,65.04
2018-09-17T19:34:13.823Z,66.68
2018-09-17T19:36:44.138Z,67.67
2018-09-17T19:39:19.206Z,69.10
2018-09-17T19:41:49.398Z,71.71
2018-09-17T19:44:19.552Z,72.80
2018-09-17T19:46:49.661Z,74.28
2018-09-17T19:49:19.839Z,74.84
2018-09-17T19:51:55.052Z,75.59
2018-09-17T19:54:25.122Z,76.10
2018-09-17T19:56:55.267Z,76.36
2018-09-17T19:59:30.491Z,76.56
2018-09-17T20:02:00.644Z,76.40
2018-09-17T20:04:35.622Z,76.80
2018-09-17T20:07:05.793Z,77.42
2018-09-17T20:09:35.879Z,77.52
2018-09-17T20:12:06.058Z,77.77
2018-09-17T20:14:36.192Z,77.88
2018-09-17T20:17:06.501Z,77.86
2018-09-17T20:19:36.590Z,78.42
2018-09-17T20:22:08.154Z,79.44
2018-09-17T20:24:38.280Z,79.65
2018-09-17T20:27:08.782Z,80.05
2018-09-17T20:29:39.095Z,79.93
2018-09-17T20:32:09.189Z,79.31
2018-09-17T20:34:39.300Z,80.11
2018-09-17T20:37:09.440Z,80.73
2018-09-17T20:39:39.540Z,80.58
2018-09-17T20:42:09.691Z,80.64
2018-09-17T20:44:39.781Z,81.43
2018-09-17T20:47:09.899Z,81.56
2018-09-17T20:49:40.014Z,81.58
2018-09-17T20:52:10.052Z,81.78
2018-09-17T20:54:40.156Z,82.18
2018-09-17T20:57:10.263Z,82.50
2018-09-17T20:59:40.352Z,83.26
2018-09-17T21:02:10.602Z,83.12
2018-09-17T21:04:40.730Z,83.00
2018-09-17T21:07:10.900Z,82.68
2018-09-17T21:09:40.958Z,82.32
2018-09-17T21:12:11.075Z,82.32
2018-09-17T21:14:41.130Z,82.22
2018-09-17T21:17:11.277Z,82.95
2018-09-17T21:19:41.369Z,82.89
2018-09-17T21:22:11.579Z,83.24
2018-09-17T21:24:41.783Z,82.77
2018-09-17T21:27:11.886Z,82.85
2018-09-17T21:29:41.984Z,82.62
2018-09-17T21:32:12.168Z,82.19
2018-09-17T21:34:42.271Z,82.68
2018-09-17T21:37:12.472Z,83.00
2018-09-17T21:39:42.609Z,83.17
2018-09-17T21:42:12.740Z,82.70
2018-09-17T21:44:42.804Z,82.54
2018-09-17T21:47:12.963Z,82.09
2018-09-17T21:49:43.226Z,82.86
2018-09-17T21:52:13.317Z,82.98
2018-09-17T21:54:43.429Z,83.53
2018-09-17T21:57:13.533Z,83.29
2018-09-17T21:59:43.627Z,83.82
2018-09-17T22:02:13.861Z,83.58
2018-09-17T22:04:43.975Z,83.74
2018-09-17T22:07:14.097Z,84.17
2018-09-17T22:09:44.187Z,83.71
2018-09-17T22:12:14.272Z,83.22
2018-09-17T22:14:44.377Z,83.18
2018-09-17T22:17:14.518Z,83.23
2018-09-17T22:19:44.671Z,83.23
2018-09-17T22:22:14.757Z,84.04
2018-09-17T22:24:44.916Z,83.66
2018-09-17T22:27:15.039Z,84.35
2018-09-17T22:29:45.123Z,84.64
2018-09-17T22:32:15.213Z,84.73
2018-09-17T22:34:45.275Z,85.21
2018-09-17T22:37:15.365Z,84.66
2018-09-17T22:39:46.432Z,85.00
2018-09-17T22:42:16.716Z,85.24
2018-09-17T22:44:46.728Z,85.35
2018-09-17T22:47:16.963Z,85.09
2018-09-17T22:49:47.048Z,85.25
2018-09-17T22:52:17.137Z,85.04
2018-09-17T22:54:47.223Z,85.61
2018-09-17T22:57:17.396Z,85.40
2018-09-17T22:59:47.460Z,85.21
2018-09-17T23:02:17.607Z,85.25
2018-09-17T23:04:47.725Z,85.12
2018-09-17T23:07:17.977Z,85.33
2018-09-17T23:09:48.049Z,85.05
2018-09-17T23:12:18.283Z,84.65
2018-09-17T23:14:48.356Z,85.66
2018-09-17T23:17:18.969Z,85.69
2018-09-17T23:19:49.072Z,85.82
2018-09-17T23:22:19.221Z,85.82
2018-09-17T23:24:49.319Z,85.74
2018-09-17T23:27:19.610Z,85.43
2018-09-17T23:29:49.694Z,85.86
2018-09-17T23:32:19.894Z,85.68
2018-09-17T23:34:50.075Z,86.18
2018-09-17T23:37:20.159Z,86.44
2018-09-17T23:39:50.281Z,87.42
2018-09-17T23:42:20.382Z,87.21
2018-09-17T23:44:50.437Z,87.17
2018-09-17T23:47:20.535Z,86.92
2018-09-17T23:49:50.554Z,86.94
2018-09-17T23:52:20.629Z,86.92
2018-09-17T23:54:50.716Z,87.20
2018-09-17T23:57:20.853Z,88.11
2018-09-17T23:59:50.969Z,87.77
